Time;durP1;ratioP1;P1;durP2;ratioP2;P2;SDS_P1;SDS_P2;PMS_P1;PMS_P2;Temp;Humidity;BMP_temperature;BMP_pressure;BME280_temperature;BME280_humidity;BME280_pressure;Samples;Min_cycle;Max_cycle;Signal;HPM_P1;HPM_P2
2020/12/21 00:01:59;;;;;;;19.08;3.60;;;7.10;86.90;;;;;;5051532;28;20385;-84
2020/12/21 00:04:25;;;;;;;11.98;2.78;;;7.00;86.80;;;;;;5051635;28;20405;-83
2020/12/21 00:06:55;;;;;;;13.65;3.03;;;7.10;86.60;;;;;;5051097;28;20382;-83
2020/12/21 00:09:21;;;;;;;11.15;2.67;;;7.10;86.50;;;;;;5051891;28;20381;-83
2020/12/21 00:11:47;;;;;;;17.33;2.75;;;7.10;86.40;;;;;;5051260;28;20731;-83
2020/12/21 00:14:13;;;;;;;13.45;2.70;;;7.00;86.80;;;;;;5051673;28;20721;-83
2020/12/21 00:16:44;;;;;;;12.50;2.83;;;7.00;86.70;;;;;;5050832;28;20780;-83
2020/12/21 00:19:10;;;;;;;11.65;2.67;;;6.90;87.10;;;;;;5051251;28;20384;-83
2020/12/21 00:21:37;;;;;;;17.88;2.67;;;6.90;87.20;;;;;;5051537;28;20556;-83
2020/12/21 00:24:04;;;;;;;10.68;2.40;;;6.90;87.00;;;;;;5051015;28;20405;-82
2020/12/21 00:26:29;;;;;;;18.55;3.10;;;6.90;86.90;;;;;;5051254;28;20405;-82
2020/12/21 00:28:55;;;;;;;13.73;2.67;;;6.80;87.10;;;;;;5032841;28;20390;-83
2020/12/21 00:31:25;;;;;;;14.35;2.38;;;6.90;87.00;;;;;;5051429;28;20382;-84
2020/12/21 00:33:52;;;;;;;12.98;2.20;;;6.80;87.10;;;;;;5051070;28;20420;-83
2020/12/21 00:36:18;;;;;;;11.50;2.40;;;6.90;86.80;;;;;;5033182;28;20386;-83
2020/12/21 00:38:43;;;;;;;12.07;3.00;;;6.80;87.10;;;;;;5032504;28;20457;-83
2020/12/21 00:41:13;;;;;;;11.87;2.50;;;7.00;86.40;;;;;;5051157;28;20465;-83
2020/12/21 00:43:38;;;;;;;16.98;2.90;;;6.90;86.80;;;;;;5032846;28;20409;-83
2020/12/21 00:46:04;;;;;;;11.63;2.40;;;6.90;86.80;;;;;;5032299;28;20938;-81
2020/12/21 00:48:30;;;;;;;18.85;3.10;;;6.90;86.50;;;;;;5050460;28;20370;-83
2020/12/21 00:50:57;;;;;;;13.48;2.60;;;6.90;86.60;;;;;;5050790;28;20712;-83
2020/12/21 00:53:23;;;;;;;15.35;2.38;;;6.70;87.10;;;;;;5032963;28;20432;-83
2020/12/21 00:55:49;;;;;;;9.77;2.20;;;6.70;87.20;;;;;;5050629;28;20382;-82
2020/12/21 00:58:16;;;;;;;12.67;3.70;;;6.70;87.20;;;;;;5050398;28;20869;-82
2020/12/21 01:00:41;;;;;;;9.50;2.37;;;6.80;87.10;;;;;;5049063;28;20382;-83
2020/12/21 01:03:07;;;;;;;12.83;2.57;;;6.80;87.00;;;;;;5050542;28;20442;-83
2020/12/21 01:05:34;;;;;;;10.43;2.23;;;6.80;86.90;;;;;;5032546;28;20746;-83
2020/12/21 01:07:59;;;;;;;11.05;2.20;;;6.70;87.20;;;;;;5050161;28;20376;-83
2020/12/21 01:10:25;;;;;;;16.60;3.13;;;6.80;87.00;;;;;;5032280;28;20894;-82
2020/12/21 01:12:51;;;;;;;12.97;2.63;;;6.70;87.20;;;;;;5050311;28;20739;-82
2020/12/21 01:15:16;;;;;;;13.37;3.00;;;6.60;87.50;;;;;;5032585;28;20880;-83
2020/12/21 01:17:42;;;;;;;12.60;2.20;;;6.60;87.40;;;;;;5049766;28;20409;-83
2020/12/21 01:20:08;;;;;;;10.73;2.40;;;6.60;87.50;;;;;;5032449;28;20425;-83
2020/12/21 01:22:33;;;;;;;14.80;2.67;;;6.70;87.20;;;;;;5050018;28;20393;-82
2020/12/21 01:24:59;;;;;;;17.08;3.08;;;6.60;87.30;;;;;;5050230;28;20405;-83
2020/12/21 01:27:24;;;;;;;11.82;2.58;;;6.50;87.70;;;;;;5049889;28;20397;-83
2020/12/21 01:29:50;;;;;;;9.95;2.35;;;6.50;87.60;;;;;;5050158;28;20373;-83
2020/12/21 01:32:15;;;;;;;14.13;2.35;;;6.50;87.70;;;;;;5050027;28;20382;-82
2020/12/21 01:34:41;;;;;;;14.90;2.87;;;6.60;87.50;;;;;;5050040;28;20765;-83
2020/12/21 01:37:06;;;;;;;12.13;2.33;;;6.60;87.50;;;;;;5049554;28;20388;-82
2020/12/21 01:39:32;;;;;;;13.63;2.73;;;6.60;87.60;;;;;;5032630;28;20397;-81
2020/12/21 01:41:58;;;;;;;14.73;3.10;;;6.50;87.70;;;;;;5032123;28;20436;-81
2020/12/21 01:44:23;;;;;;;14.07;2.53;;;6.50;87.50;;;;;;5050021;28;20412;-83
2020/12/21 01:46:49;;;;;;;12.43;2.53;;;6.40;87.80;;;;;;5049818;28;20456;-82
2020/12/21 01:49:15;;;;;;;13.73;3.27;;;6.40;88.00;;;;;;5050125;28;20377;-83
2020/12/21 01:51:41;;;;;;;18.43;3.07;;;6.40;87.80;;;;;;5050275;28;20512;-82
2020/12/21 01:54:07;;;;;;;11.52;2.60;;;6.50;87.60;;;;;;5050325;28;20960;-83
2020/12/21 01:56:35;;;;;;;13.63;2.50;;;6.40;87.70;;;;;;5032222;28;20874;-81
2020/12/21 01:59:01;;;;;;;13.85;2.90;;;6.50;87.80;;;;;;5049173;28;20389;-82
2020/12/21 02:01:28;;;;;;;12.88;2.30;;;6.50;87.50;;;;;;5050342;28;20773;-83
2020/12/21 02:03:54;;;;;;;16.95;2.78;;;6.50;87.50;;;;;;5031880;28;20413;-82
2020/12/21 02:06:20;;;;;;;12.02;2.70;;;6.40;87.90;;;;;;5032441;28;20405;-83
2020/12/21 02:08:46;;;;;;;17.42;2.55;;;6.40;87.90;;;;;;5049301;28;20682;-83
2020/12/21 02:11:11;;;;;;;11.70;2.60;;;6.50;87.60;;;;;;5032277;28;20476;-83
2020/12/21 02:13:37;;;;;;;12.80;2.63;;;6.50;87.40;;;;;;5050383;28;20519;-83
2020/12/21 02:16:03;;;;;;;13.53;2.63;;;6.40;87.60;;;;;;5031892;28;20890;-82
2020/12/21 02:18:29;;;;;;;16.70;3.40;;;6.40;87.90;;;;;;5050077;28;20388;-82
2020/12/21 02:20:55;;;;;;;8.57;1.85;;;6.40;87.80;;;;;;5049924;28;20373;-82
2020/12/21 02:23:20;;;;;;;13.77;2.67;;;6.40;87.80;;;;;;5050424;28;20389;-82
2020/12/21 02:25:46;;;;;;;10.03;2.20;;;6.40;88.00;;;;;;5032142;28;20736;-82
2020/12/21 02:28:11;;;;;;;10.37;2.43;;;6.30;88.10;;;;;;5049509;28;20390;-82
2020/12/21 02:30:37;;;;;;;10.00;2.27;;;6.30;88.00;;;;;;5049642;28;20378;-83
2020/12/21 02:33:06;;;;;;;15.23;2.70;;;6.30;88.00;;;;;;5049570;28;20411;-82
2020/12/21 02:35:33;;;;;;;12.75;2.53;;;6.30;88.40;;;;;;5049457;28;20386;-82
2020/12/21 02:38:00;;;;;;;10.60;2.33;;;6.20;88.10;;;;;;5049180;28;20401;-83
2020/12/21 02:40:25;;;;;;;13.27;2.50;;;6.20;88.40;;;;;;5049546;28;20472;-82
2020/12/21 02:42:51;;;;;;;9.87;2.60;;;6.30;88.40;;;;;;5049080;28;20910;-82
2020/12/21 02:45:16;;;;;;;12.27;2.00;;;6.30;88.20;;;;;;5049518;28;20478;-82
2020/12/21 02:47:42;;;;;;;13.88;3.97;;;6.30;88.10;;;;;;5048499;28;20447;-82
2020/12/21 02:50:07;;;;;;;9.50;2.20;;;6.30;88.20;;;;;;5031624;28;20389;-83
2020/12/21 02:52:33;;;;;;;10.10;2.22;;;6.20;88.20;;;;;;5049079;28;20389;-83
2020/12/21 02:54:58;;;;;;;10.47;2.10;;;6.30;88.30;;;;;;5048964;28;20385;-82
2020/12/21 02:57:24;;;;;;;6.93;1.97;;;6.10;88.50;;;;;;5048701;28;20385;-82
2020/12/21 02:59:50;;;;;;;12.80;3.00;;;6.00;88.70;;;;;;5048142;28;20441;-82
2020/12/21 03:02:15;;;;;;;13.20;2.53;;;6.10;88.70;;;;;;5048866;28;20477;-82
2020/12/21 03:04:41;;;;;;;9.30;1.90;;;6.00;88.80;;;;;;5031133;28;20929;-83
2020/12/21 03:07:06;;;;;;;8.87;2.23;;;6.00;88.80;;;;;;5048330;28;20417;-83
2020/12/21 03:09:32;;;;;;;13.02;2.10;;;6.10;88.70;;;;;;5050559;28;20785;-82
2020/12/21 03:11:58;;;;;;;12.82;2.33;;;6.20;88.30;;;;;;5052416;28;20416;-83
2020/12/21 03:14:23;;;;;;;14.85;2.30;;;6.20;88.10;;;;;;5052516;28;20404;-82
2020/12/21 03:16:49;;;;;;;10.07;2.35;;;6.10;88.30;;;;;;5034362;28;20879;-84
2020/12/21 03:19:15;;;;;;;8.18;2.08;;;6.30;87.80;;;;;;5052300;28;20528;-82
2020/12/21 03:21:40;;;;;;;15.10;2.08;;;6.30;87.70;;;;;;5034842;28;20393;-82
2020/12/21 03:24:06;;;;;;;10.80;2.20;;;6.20;87.90;;;;;;5052210;28;20409;-82
2020/12/21 03:26:31;;;;;;;12.30;2.38;;;6.20;88.00;;;;;;5052571;28;20381;-82
2020/12/21 03:28:57;;;;;;;11.30;2.13;;;6.20;88.10;;;;;;5051870;28;20373;-83
2020/12/21 03:31:23;;;;;;;9.55;1.65;;;6.10;88.20;;;;;;5052317;28;20473;-82
2020/12/21 03:33:48;;;;;;;11.57;2.30;;;6.10;88.10;;;;;;5052272;28;20392;-82
2020/12/21 03:36:14;;;;;;;6.77;1.90;;;6.10;88.00;;;;;;5052513;28;20386;-83
2020/12/21 03:38:39;;;;;;;8.63;2.07;;;6.20;87.80;;;;;;5033545;28;20963;-82
2020/12/21 03:41:05;;;;;;;12.67;2.37;;;6.20;87.90;;;;;;5052033;28;20410;-82
2020/12/21 03:43:31;;;;;;;11.60;1.97;;;6.20;87.80;;;;;;5051983;28;20405;-82
2020/12/21 03:45:56;;;;;;;8.57;1.83;;;6.20;87.70;;;;;;5051781;28;20435;-83
2020/12/21 03:48:22;;;;;;;11.90;1.97;;;6.20;87.40;;;;;;5051835;28;20781;-82
2020/12/21 03:50:47;;;;;;;14.77;2.10;;;6.10;87.80;;;;;;5051881;28;20422;-83
2020/12/21 03:53:13;;;;;;;15.20;2.17;;;6.00;88.00;;;;;;5034068;28;20413;-82
2020/12/21 03:55:39;;;;;;;6.03;1.80;;;6.10;87.70;;;;;;5051798;28;20567;-82
2020/12/21 03:58:05;;;;;;;7.65;1.85;;;6.20;87.40;;;;;;5051529;28;20435;-83
2020/12/21 04:00:30;;;;;;;7.17;1.70;;;6.10;87.50;;;;;;5051684;28;20415;-83
2020/12/21 04:02:56;;;;;;;9.73;1.77;;;6.10;87.40;;;;;;5033626;28;20392;-82
2020/12/21 04:05:22;;;;;;;9.47;1.97;;;6.10;87.30;;;;;;5051288;28;20418;-82
2020/12/21 04:07:48;;;;;;;7.83;2.17;;;6.10;87.30;;;;;;5051731;28;20792;-82
2020/12/21 04:10:13;;;;;;;10.20;1.90;;;6.10;87.20;;;;;;5049775;28;20400;-82
2020/12/21 04:12:39;;;;;;;10.60;1.80;;;6.10;87.40;;;;;;5051555;28;20381;-82
2020/12/21 04:15:05;;;;;;;11.63;2.40;;;6.00;87.60;;;;;;5051341;28;20382;-82
2020/12/21 04:17:31;;;;;;;10.88;1.88;;;6.00;87.50;;;;;;5050994;28;20397;-82
2020/12/21 04:19:57;;;;;;;9.23;1.75;;;6.00;87.80;;;;;;5051308;28;20382;-82
2020/12/21 04:22:23;;;;;;;14.20;1.88;;;5.90;87.60;;;;;;5050382;28;20381;-82
2020/12/21 04:24:48;;;;;;;8.90;1.80;;;6.00;87.70;;;;;;5051526;28;20731;-83
2020/12/21 04:27:14;;;;;;;8.88;1.92;;;6.00;87.50;;;;;;5051772;28;20391;-82
2020/12/21 04:29:40;;;;;;;9.10;1.83;;;5.90;87.70;;;;;;5051191;28;20412;-82
2020/12/21 04:32:05;;;;;;;9.00;2.00;;;6.00;87.80;;;;;;5051220;28;20417;-82
2020/12/21 04:34:31;;;;;;;8.45;1.67;;;6.00;87.50;;;;;;5051077;28;20854;-82
2020/12/21 04:36:56;;;;;;;11.85;1.85;;;6.00;87.40;;;;;;5050515;28;20386;-82
2020/12/21 04:39:22;;;;;;;8.52;1.42;;;6.00;87.50;;;;;;5051324;28;20380;-82
2020/12/21 04:41:55;;;;;;;10.70;2.22;;;5.90;87.60;;;;;;5050838;28;20377;-83
2020/12/21 04:44:22;;;;;;;11.27;1.50;;;5.90;87.70;;;;;;5049789;28;20889;-83
2020/12/21 04:46:50;;;;;;;13.50;1.63;;;5.90;87.70;;;;;;5049064;28;20401;-83
2020/12/21 04:49:16;;;;;;;8.15;1.55;;;5.90;87.60;;;;;;5050921;28;20392;-82
2020/12/21 04:51:45;;;;;;;8.45;1.90;;;5.90;87.60;;;;;;5049895;28;20397;-83
2020/12/21 04:54:10;;;;;;;9.93;2.13;;;5.90;87.40;;;;;;5050917;28;20389;-82
2020/12/21 04:56:37;;;;;;;12.35;1.50;;;5.90;87.40;;;;;;5050192;28;20396;-82
2020/12/21 04:59:03;;;;;;;9.63;1.83;;;5.90;87.30;;;;;;5050724;28;20386;-83
2020/12/21 05:01:28;;;;;;;11.45;1.90;;;5.90;87.50;;;;;;5050415;28;20385;-82
2020/12/21 05:03:54;;;;;;;7.27;1.80;;;5.80;87.50;;;;;;5048981;28;20813;-83
2020/12/21 05:06:20;;;;;;;10.93;1.65;;;5.90;87.10;;;;;;5050591;28;20385;-82
2020/12/21 05:08:45;;;;;;;8.88;1.90;;;5.90;87.20;;;;;;5049897;28;20386;-82
2020/12/21 05:11:11;;;;;;;14.70;2.03;;;5.90;87.10;;;;;;5050569;28;20377;-82
2020/12/21 05:13:37;;;;;;;10.33;1.80;;;5.90;87.10;;;;;;5050293;28;20733;-82
2020/12/21 05:16:03;;;;;;;9.20;1.70;;;5.90;86.90;;;;;;5050270;28;20397;-82
2020/12/21 05:18:34;;;;;;;10.20;1.70;;;5.90;86.80;;;;;;5049781;28;20378;-82
2020/12/21 05:21:07;;;;;;;8.77;1.58;;;5.80;87.00;;;;;;5050336;28;20439;-82
2020/12/21 05:23:34;;;;;;;6.20;1.85;;;5.90;86.60;;;;;;5050007;28;20489;-82
2020/12/21 05:26:08;;;;;;;8.77;1.83;;;5.80;87.10;;;;;;5050247;28;20393;-82
2020/12/21 05:28:34;;;;;;;11.98;2.05;;;5.70;87.50;;;;;;5049578;28;20390;-81
2020/12/21 05:31:05;;;;;;;9.85;1.80;;;5.80;87.40;;;;;;5048629;28;20412;-83
2020/12/21 05:33:31;;;;;;;6.88;1.70;;;5.70;87.40;;;;;;5050213;28;20384;-83
2020/12/21 05:36:05;;;;;;;13.55;2.85;;;5.80;87.10;;;;;;5049755;28;20381;-82
2020/12/21 05:38:31;;;;;;;9.95;2.30;;;5.80;87.30;;;;;;5049794;28;20466;-82
2020/12/21 05:41:18;;;;;;;7.28;1.60;;;5.90;86.90;;;;;;5048405;28;20481;-82
2020/12/21 05:43:48;;;;;;;11.82;1.67;;;5.90;86.90;;;;;;5049974;28;20770;-82
2020/12/21 05:46:18;;;;;;;11.17;2.30;;;5.80;87.10;;;;;;5049547;28;20400;-82
2020/12/21 05:48:48;;;;;;;15.30;1.90;;;5.80;87.20;;;;;;5049182;28;20389;-82
2020/12/21 05:51:30;;;;;;;8.35;1.92;;;5.80;87.30;;;;;;5049871;28;20381;-82
2020/12/21 05:53:57;;;;;;;9.55;1.70;;;5.80;87.10;;;;;;5049746;28;20378;-82
2020/12/21 05:56:24;;;;;;;10.63;1.60;;;5.90;86.80;;;;;;5049876;28;20425;-83
2020/12/21 05:58:51;;;;;;;7.72;2.00;;;5.90;86.40;;;;;;5049141;28;20463;-83
2020/12/21 06:01:17;;;;;;;5.28;1.35;;;5.90;86.70;;;;;;5049686;28;20421;-83
2020/12/21 06:03:47;;;;;;;11.88;1.83;;;6.00;86.60;;;;;;5049397;28;20414;-83
2020/12/21 06:06:14;;;;;;;10.55;2.25;;;6.00;86.20;;;;;;5048423;28;20746;-81
2020/12/21 06:08:40;;;;;;;7.15;1.92;;;6.00;86.20;;;;;;5049029;28;20385;-82
2020/12/21 06:11:36;;;;;;;14.15;1.90;;;6.10;86.10;;;;;;5048254;28;20392;-83
2020/12/21 06:14:15;;;;;;;10.32;1.42;;;6.20;85.80;;;;;;5036446;28;20467;-83
2020/12/21 06:16:41;;;;;;;8.97;2.37;;;6.10;85.80;;;;;;5048722;28;20491;-83
2020/12/21 06:19:12;;;;;;;6.65;1.50;;;6.20;85.70;;;;;;5049087;28;20460;-83
2020/12/21 06:21:42;;;;;;;11.43;2.20;;;6.20;85.70;;;;;;5048624;28;20410;-83
2020/12/21 06:24:17;;;;;;;13.90;2.20;;;6.30;85.30;;;;;;5031650;28;20433;-84
2020/12/21 06:26:42;;;;;;;8.95;2.88;;;6.20;85.70;;;;;;5030853;28;20405;-83
2020/12/21 06:29:10;;;;;;;9.60;1.83;;;6.30;85.40;;;;;;5049823;28;20385;-83
2020/12/21 06:31:47;;;;;;;8.45;1.70;;;6.30;85.80;;;;;;5049218;28;20444;-83
2020/12/21 06:34:29;;;;;;;10.30;2.40;;;6.40;85.50;;;;;;5049080;28;20393;-81
2020/12/21 06:37:06;;;;;;;9.55;1.85;;;6.30;85.70;;;;;;5049021;28;20451;-83
2020/12/21 06:39:32;;;;;;;7.28;1.40;;;6.30;85.40;;;;;;5049211;28;20394;-84
2020/12/21 06:42:05;;;;;;;12.43;1.95;;;6.30;85.60;;;;;;5049008;28;20391;-83
2020/12/21 06:44:31;;;;;;;13.93;3.15;;;6.30;85.60;;;;;;5030261;28;20417;-83
2020/12/21 06:46:58;;;;;;;9.13;1.40;;;6.40;85.50;;;;;;5053021;28;20417;-80
2020/12/21 06:49:24;;;;;;;7.50;1.50;;;6.40;85.30;;;;;;5035038;28;20720;-83
2020/12/21 06:51:50;;;;;;;9.45;2.05;;;6.40;85.40;;;;;;5052898;28;20476;-83
2020/12/21 06:54:17;;;;;;;10.75;1.75;;;6.40;85.50;;;;;;5053427;28;20385;-83
2020/12/21 06:56:48;;;;;;;9.32;2.45;;;6.40;85.30;;;;;;5052405;28;20439;-84
2020/12/21 06:59:15;;;;;;;8.15;1.50;;;6.30;85.50;;;;;;5053175;28;21221;-83
2020/12/21 07:01:42;;;;;;;11.37;1.93;;;6.40;85.50;;;;;;5033127;28;20436;-83
2020/12/21 07:04:18;;;;;;;7.68;1.52;;;6.40;85.70;;;;;;5052975;28;20448;-83
2020/12/21 07:06:45;;;;;;;15.20;2.20;;;6.30;86.00;;;;;;5052224;28;20385;-82
2020/12/21 07:09:13;;;;;;;13.10;2.20;;;6.40;85.70;;;;;;5052938;28;20438;-83
2020/12/21 07:11:42;;;;;;;13.40;1.60;;;6.40;85.30;;;;;;5052496;28;20386;-82
2020/12/21 07:14:08;;;;;;;12.32;1.98;;;6.40;85.70;;;;;;5053026;28;20386;-83
2020/12/21 07:16:34;;;;;;;9.32;2.80;;;6.40;85.40;;;;;;5052088;28;20420;-82
2020/12/21 07:19:00;;;;;;;12.00;1.87;;;6.30;85.70;;;;;;5052500;28;20442;-82
2020/12/21 07:21:25;;;;;;;7.57;1.90;;;6.30;86.10;;;;;;5052571;28;20373;-83
2020/12/21 07:23:51;;;;;;;8.40;1.73;;;6.30;85.90;;;;;;5052114;28;20413;-83
2020/12/21 07:26:17;;;;;;;8.33;2.40;;;6.40;85.80;;;;;;5052658;28;20405;-83
2020/12/21 07:28:47;;;;;;;7.65;2.28;;;6.30;85.90;;;;;;5051816;28;20523;-83
2020/12/21 07:31:20;;;;;;;6.32;1.90;;;6.20;86.40;;;;;;5052675;28;20389;-83
2020/12/21 07:33:57;;;;;;;14.60;2.97;;;6.40;86.00;;;;;;5051977;28;20385;-83
2020/12/21 07:36:28;;;;;;;6.63;1.80;;;6.30;86.10;;;;;;5052506;28;20778;-83
2020/12/21 07:39:03;;;;;;;6.18;1.50;;;6.30;86.10;;;;;;5051923;28;20451;-84
2020/12/21 07:41:30;;;;;;;7.95;1.60;;;6.30;86.00;;;;;;5032818;28;20389;-82
2020/12/21 07:44:16;;;;;;;7.88;1.77;;;6.40;86.00;;;;;;5051175;28;20444;-83
2020/12/21 07:47:03;;;;;;;5.70;1.60;;;6.30;86.20;;;;;;5033600;28;20481;-83
2020/12/21 07:49:35;;;;;;;11.87;1.90;;;6.30;86.10;;;;;;5052285;28;20396;-83
2020/12/21 07:52:06;;;;;;;14.33;2.80;;;6.30;86.00;;;;;;5051547;28;20468;-83
2020/12/21 07:54:39;;;;;;;10.52;1.65;;;6.20;86.40;;;;;;5034102;28;20385;-84
2020/12/21 07:57:06;;;;;;;7.22;1.80;;;6.40;86.00;;;;;;5029356;28;20385;-83
2020/12/21 07:59:32;;;;;;;8.67;2.10;;;6.30;86.00;;;;;;5051632;28;20373;-83
2020/12/21 08:02:03;;;;;;;9.18;2.10;;;6.40;86.10;;;;;;5051457;28;20393;-81
2020/12/21 08:04:29;;;;;;;10.18;2.30;;;6.40;85.90;;;;;;5032815;28;20414;-83
2020/12/21 08:07:03;;;;;;;12.23;1.88;;;6.40;85.80;;;;;;5049941;28;20435;-83
2020/12/21 08:09:29;;;;;;;9.32;2.08;;;6.50;85.80;;;;;;5051486;28;20382;-83
2020/12/21 08:11:57;;;;;;;10.43;2.10;;;6.40;85.70;;;;;;5051532;28;20447;-83
2020/12/21 08:14:23;;;;;;;9.70;1.95;;;6.40;85.80;;;;;;5051173;28;20738;-83
2020/12/21 08:16:48;;;;;;;9.00;1.67;;;6.40;85.90;;;;;;5032963;28;20408;-83
2020/12/21 08:19:20;;;;;;;7.53;2.00;;;6.50;85.40;;;;;;5051362;28;20772;-82
2020/12/21 08:21:46;;;;;;;7.88;1.98;;;6.40;85.80;;;;;;5050993;28;20378;-84
2020/12/21 08:24:12;;;;;;;10.48;1.73;;;6.40;85.90;;;;;;5051214;28;20894;-81
2020/12/21 08:26:38;;;;;;;11.70;2.13;;;6.50;85.60;;;;;;5050633;28;20390;-83
2020/12/21 08:29:04;;;;;;;13.05;2.42;;;6.60;85.50;;;;;;5033385;28;20886;-83
2020/12/21 08:31:30;;;;;;;6.93;1.90;;;6.60;85.60;;;;;;5050996;28;20390;-83
2020/12/21 08:34:00;;;;;;;8.82;2.17;;;6.60;85.60;;;;;;5051217;28;20385;-83
2020/12/21 08:36:29;;;;;;;11.32;2.22;;;6.70;85.20;;;;;;5032821;28;20390;-82
2020/12/21 08:39:14;;;;;;;9.20;2.10;;;6.70;85.50;;;;;;5051003;28;20385;-83
2020/12/21 08:41:46;;;;;;;11.40;2.00;;;6.70;85.50;;;;;;5051028;28;20385;-82
2020/12/21 08:44:21;;;;;;;11.15;1.73;;;6.80;85.10;;;;;;5033060;28;20409;-82
2020/12/21 08:46:48;;;;;;;11.88;1.90;;;6.90;84.70;;;;;;5050985;28;20390;-82
2020/12/21 08:49:14;;;;;;;6.57;1.88;;;7.00;84.30;;;;;;5049550;28;20381;-82
2020/12/21 08:51:40;;;;;;;12.93;2.20;;;7.00;84.50;;;;;;5050995;28;20447;-83
2020/12/21 08:54:05;;;;;;;6.55;1.90;;;6.90;84.90;;;;;;5032771;28;20394;-82
2020/12/21 08:56:31;;;;;;;9.43;1.90;;;6.90;84.80;;;;;;5050701;28;20392;-80
2020/12/21 08:58:57;;;;;;;10.33;2.00;;;7.00;84.60;;;;;;5050443;28;20374;-80
2020/12/21 09:01:22;;;;;;;10.23;2.00;;;7.00;84.40;;;;;;5032694;28;20953;-80
2020/12/21 09:03:48;;;;;;;4.73;1.63;;;7.00;84.90;;;;;;5050451;28;20492;-80
2020/12/21 09:06:18;;;;;;;7.83;1.70;;;7.00;84.90;;;;;;5050439;28;20979;-81
2020/12/21 09:08:44;;;;;;;10.68;2.05;;;7.00;84.70;;;;;;5031538;28;20476;-80
2020/12/21 09:11:10;;;;;;;10.98;1.90;;;7.00;84.80;;;;;;5032358;28;20488;-79
2020/12/21 09:13:35;;;;;;;10.10;2.00;;;7.10;84.70;;;;;;5050493;28;20386;-80
2020/12/21 09:16:01;;;;;;;9.23;1.90;;;7.10;84.50;;;;;;5049930;28;20496;-80
2020/12/21 09:18:27;;;;;;;11.40;1.80;;;7.10;84.70;;;;;;5049835;28;20393;-80
2020/12/21 09:20:52;;;;;;;13.75;1.80;;;7.20;84.70;;;;;;5050126;28;20373;-80
2020/12/21 09:23:18;;;;;;;13.67;2.33;;;7.20;84.50;;;;;;5050127;28;20390;-79
2020/12/21 09:25:44;;;;;;;9.63;1.97;;;7.20;84.80;;;;;;5049929;28;20428;-80
2020/12/21 09:28:09;;;;;;;9.43;2.30;;;7.30;84.50;;;;;;5049673;28;20785;-79
2020/12/21 09:30:35;;;;;;;10.33;1.70;;;7.30;84.20;;;;;;5049862;28;20392;-80
2020/12/21 09:33:01;;;;;;;11.67;2.33;;;7.30;84.50;;;;;;5050403;28;20713;-80
2020/12/21 09:35:27;;;;;;;11.02;2.10;;;7.30;84.10;;;;;;5049908;28;20462;-80
2020/12/21 09:37:53;;;;;;;8.02;2.03;;;7.30;84.70;;;;;;5049935;28;20464;-79
2020/12/21 09:40:19;;;;;;;10.10;2.00;;;7.30;84.50;;;;;;5048268;28;20385;-79
2020/12/21 09:42:44;;;;;;;7.65;1.70;;;7.30;84.50;;;;;;5031841;28;20397;-80
2020/12/21 09:45:10;;;;;;;8.13;1.70;;;7.30;84.80;;;;;;5049951;28;20427;-79
2020/12/21 09:47:37;;;;;;;9.15;1.95;;;7.40;84.40;;;;;;5030815;28;20503;-79
2020/12/21 09:50:03;;;;;;;8.87;2.10;;;7.40;84.70;;;;;;5048373;28;20417;-79
2020/12/21 09:52:28;;;;;;;11.75;1.92;;;7.40;84.40;;;;;;5049344;28;20386;-78
2020/12/21 09:54:55;;;;;;;6.53;1.60;;;7.40;84.30;;;;;;5049758;28;20427;-79
2020/12/21 09:57:21;;;;;;;9.52;1.95;;;7.40;84.30;;;;;;5048454;28;20484;-79
2020/12/21 09:59:46;;;;;;;9.17;1.80;;;7.40;84.40;;;;;;5049565;28;20925;-79
2020/12/21 10:02:12;;;;;;;9.13;2.00;;;7.40;84.50;;;;;;5049359;28;20375;-79
2020/12/21 10:04:37;;;;;;;6.87;1.80;;;7.50;83.90;;;;;;5031420;28;20401;-79
2020/12/21 10:07:03;;;;;;;7.90;2.00;;;7.60;84.00;;;;;;5048899;28;20443;-80
2020/12/21 10:09:28;;;;;;;8.80;2.05;;;7.50;84.40;;;;;;5049679;28;20378;-79
2020/12/21 10:11:54;;;;;;;8.98;1.88;;;7.60;84.20;;;;;;5049179;28;20837;-80
2020/12/21 10:14:19;;;;;;;8.87;2.20;;;7.60;83.80;;;;;;5049151;28;20381;-80
2020/12/21 10:16:45;;;;;;;9.73;2.07;;;7.70;83.70;;;;;;5048885;28;20463;-78
2020/12/21 10:19:11;;;;;;;7.27;1.80;;;7.70;83.80;;;;;;5048524;28;20386;-78
2020/12/21 10:21:36;;;;;;;10.43;1.90;;;7.80;83.60;;;;;;5049677;28;20730;-78
2020/12/21 10:24:02;;;;;;;8.37;2.07;;;7.80;83.70;;;;;;5049201;28;20499;-77
2020/12/21 10:26:27;;;;;;;8.25;2.10;;;7.80;83.70;;;;;;5049315;28;20393;-78
2020/12/21 10:28:53;;;;;;;8.18;1.73;;;7.80;83.10;;;;;;5048804;28;20762;-80
2020/12/21 10:31:18;;;;;;;10.05;1.95;;;7.90;83.30;;;;;;5049246;28;20416;-77
2020/12/21 10:33:44;;;;;;;5.67;1.50;;;7.90;83.70;;;;;;5049088;28;20928;-78
2020/12/21 10:36:16;;;;;;;6.77;2.17;;;7.90;83.80;;;;;;5049214;28;20377;-78
2020/12/21 10:38:42;;;;;;;9.63;3.15;;;7.90;83.40;;;;;;5030465;28;20947;-78
2020/12/21 10:41:08;;;;;;;12.38;2.10;;;8.10;82.70;;;;;;5049183;28;20382;-79
2020/12/21 10:43:34;;;;;;;10.13;1.95;;;8.10;83.10;;;;;;5031023;28;20385;-78
2020/12/21 10:45:59;;;;;;;5.93;1.58;;;8.10;83.80;;;;;;5048919;28;20856;-79
2020/12/21 10:48:25;;;;;;;8.97;1.63;;;8.10;83.20;;;;;;5048682;28;20452;-78
2020/12/21 10:50:54;;;;;;;9.45;1.98;;;8.10;83.50;;;;;;5048979;28;20385;-79
2020/12/21 10:53:20;;;;;;;7.07;1.67;;;8.10;84.00;;;;;;5047657;28;21004;-78
2020/12/21 10:55:46;;;;;;;7.63;1.60;;;8.00;84.90;;;;;;5047563;28;20480;-78
2020/12/21 10:58:11;;;;;;;7.75;1.70;;;8.10;83.80;;;;;;5048472;28;20858;-78
2020/12/21 11:00:37;;;;;;;10.40;1.77;;;8.20;84.10;;;;;;5048753;28;20516;-78
2020/12/21 11:03:02;;;;;;;7.67;1.80;;;8.30;84.40;;;;;;5031376;28;20392;-79
2020/12/21 11:05:28;;;;;;;10.23;2.03;;;8.40;83.70;;;;;;5031112;28;20479;-80
2020/12/21 11:07:54;;;;;;;9.10;1.73;;;8.40;83.30;;;;;;5048781;28;20389;-78
2020/12/21 11:10:19;;;;;;;7.83;1.73;;;8.50;82.70;;;;;;5048698;28;20508;-79
2020/12/21 11:12:45;;;;;;;11.57;2.10;;;8.50;82.50;;;;;;5030810;28;20397;-78
2020/12/21 11:15:10;;;;;;;8.87;1.93;;;8.60;82.90;;;;;;5031733;28;20385;-78
2020/12/21 11:17:36;;;;;;;9.83;2.20;;;8.60;81.90;;;;;;5048413;28;20435;-78
2020/12/21 11:20:02;;;;;;;8.35;1.85;;;8.60;82.60;;;;;;5031393;28;20869;-78
2020/12/21 11:22:28;;;;;;;3.25;1.58;;;8.60;82.50;;;;;;5049133;28;20386;-79
2020/12/21 11:24:54;;;;;;;9.70;1.70;;;8.60;82.30;;;;;;5049118;28;21048;-79
2020/12/21 11:27:19;;;;;;;10.33;1.87;;;8.60;82.20;;;;;;5048507;28;20727;-79
2020/12/21 11:29:45;;;;;;;9.83;2.00;;;8.60;82.90;;;;;;5031514;28;20435;-79
2020/12/21 11:32:11;;;;;;;7.30;1.90;;;8.50;82.20;;;;;;5052398;28;20386;-79
2020/12/21 11:34:36;;;;;;;12.63;2.20;;;8.60;82.00;;;;;;5052672;28;20392;-79
2020/12/21 11:37:02;;;;;;;11.57;2.10;;;8.50;82.20;;;;;;5033885;28;20443;-79
2020/12/21 11:39:27;;;;;;;5.97;1.88;;;8.60;82.30;;;;;;5052210;28;20378;-79
2020/12/21 11:41:53;;;;;;;9.18;2.40;;;8.60;82.30;;;;;;5051923;28;20386;-79
2020/12/21 11:44:18;;;;;;;7.60;2.80;;;8.70;81.70;;;;;;5051899;28;20405;-79
2020/12/21 11:46:44;;;;;;;8.67;2.20;;;8.70;82.10;;;;;;5051510;28;20381;-79
2020/12/21 11:49:09;;;;;;;9.70;2.17;;;8.80;82.20;;;;;;5051821;28;20458;-79
2020/12/21 11:51:35;;;;;;;7.43;1.80;;;8.90;81.70;;;;;;5051943;28;20385;-79
2020/12/21 11:54:01;;;;;;;7.28;1.98;;;9.10;81.10;;;;;;5051663;28;20386;-80
2020/12/21 11:56:26;;;;;;;11.32;3.58;;;9.20;80.30;;;;;;5051661;28;20440;-79
2020/12/21 11:58:52;;;;;;;11.03;2.50;;;9.20;81.00;;;;;;5033175;28;20386;-80
2020/12/21 12:01:18;;;;;;;9.97;2.00;;;9.40;80.20;;;;;;5051864;28;20374;-80
2020/12/21 12:03:44;;;;;;;6.07;1.90;;;9.30;80.70;;;;;;5033490;28;20523;-80
2020/12/21 12:06:09;;;;;;;8.32;2.17;;;9.30;80.40;;;;;;5051614;28;20814;-80
2020/12/21 12:08:35;;;;;;;4.28;1.88;;;9.30;80.10;;;;;;5051195;28;20870;-81
2020/12/21 12:11:01;;;;;;;7.97;2.22;;;9.30;79.20;;;;;;5051572;28;20398;-81
2020/12/21 12:13:26;;;;;;;5.72;2.00;;;9.20;80.40;;;;;;5051334;28;20393;-80
2020/12/21 12:15:52;;;;;;;10.40;2.38;;;9.20;80.30;;;;;;5051207;28;20408;-80
2020/12/21 12:18:17;;;;;;;3.93;1.87;;;9.10;81.50;;;;;;5050967;28;20405;-80
2020/12/21 12:20:43;;;;;;;12.60;2.57;;;9.10;81.10;;;;;;5050732;28;20781;-81
2020/12/21 12:23:09;;;;;;;6.27;2.07;;;9.10;81.70;;;;;;5049311;28;20917;-79
2020/12/21 12:25:34;;;;;;;12.43;2.87;;;9.00;82.00;;;;;;5032992;28;20489;-79
2020/12/21 12:28:01;;;;;;;9.80;2.57;;;9.00;82.70;;;;;;5032926;28;20469;-79
2020/12/21 12:30:26;;;;;;;5.68;1.95;;;8.90;83.00;;;;;;5033020;28;20720;-79
2020/12/21 12:32:52;;;;;;;11.18;2.60;;;8.90;83.50;;;;;;5050117;28;20393;-78
2020/12/21 12:35:18;;;;;;;6.30;2.40;;;8.80;84.10;;;;;;5049700;28;20467;-79
2020/12/21 12:37:43;;;;;;;7.57;2.45;;;8.70;83.50;;;;;;5050659;28;20377;-79
2020/12/21 12:40:09;;;;;;;4.38;2.28;;;8.70;84.60;;;;;;5032996;28;20913;-79
2020/12/21 12:42:34;;;;;;;10.52;3.40;;;8.70;84.80;;;;;;5050222;28;20376;-79
2020/12/21 12:45:00;;;;;;;9.37;3.40;;;8.60;85.10;;;;;;5050733;28;20445;-79
2020/12/21 12:47:26;;;;;;;9.60;3.10;;;8.60;85.40;;;;;;5050127;28;20385;-80
2020/12/21 12:49:51;;;;;;;8.73;2.97;;;8.60;85.80;;;;;;5051202;28;20381;-79
2020/12/21 12:52:17;;;;;;;8.90;2.87;;;8.50;85.80;;;;;;5050551;28;20878;-79